Time;durP1;ratioP1;P1;durP2;ratioP2;P2;SDS_P1;SDS_P2;PMS_P1;PMS_P2;Temp;Humidity;BMP_temperature;BMP_pressure;BME280_temperature;BME280_humidity;BME280_pressure;Samples;Min_cycle;Max_cycle;Signal;HPM_P1;HPM_P2
2022/05/01 00:01:31;;;;;;;12.03;11.23;;;10.90;99.90;;;;;;5019797;28;20397;-85
2022/05/01 00:03:57;;;;;;;11.97;11.17;;;10.80;99.90;;;;;;5026094;28;20803;-85
2022/05/01 00:06:22;;;;;;;12.47;11.37;;;10.80;99.90;;;;;;5032146;28;20391;-85
2022/05/01 00:08:48;;;;;;;11.40;10.60;;;11.10;99.90;;;;;;5032209;28;20383;-86
2022/05/01 00:11:14;;;;;;;12.37;11.57;;;11.10;99.90;;;;;;5032074;28;20956;-85
2022/05/01 00:13:44;;;;;;;11.68;10.88;;;10.70;99.90;;;;;;5022459;28;20389;-85
2022/05/01 00:16:10;;;;;;;12.40;11.40;;;10.80;99.90;;;;;;5028591;28;20383;-85
2022/05/01 00:18:36;;;;;;;12.05;11.15;;;10.60;99.90;;;;;;5032117;28;20387;-85
2022/05/01 00:21:02;;;;;;;12.32;11.43;;;10.40;99.90;;;;;;5012450;28;20385;-86
2022/05/01 00:23:28;;;;;;;11.68;10.88;;;10.40;99.90;;;;;;5031984;28;20383;-85
2022/05/01 00:25:53;;;;;;;12.10;11.20;;;10.50;99.90;;;;;;5019802;28;20407;-85
2022/05/01 00:28:19;;;;;;;12.90;11.90;;;10.40;99.90;;;;;;5030582;28;20386;-86
2022/05/01 00:30:45;;;;;;;13.88;12.77;;;10.40;99.90;;;;;;5032130;28;20395;-85
2022/05/01 00:38:39;;;;;;;13.45;12.25;;;10.10;99.90;;;;;;5031921;28;20386;-85
2022/05/01 00:41:09;;;;;;;13.75;12.70;;;10.20;99.90;;;;;;5032489;28;20379;-86
2022/05/01 00:44:03;;;;;;;13.95;12.85;;;10.10;99.90;;;;;;5032126;28;20387;-86
2022/05/01 00:46:30;;;;;;;14.73;13.65;;;10.00;99.90;;;;;;5031957;28;20391;-85
2022/05/01 00:48:57;;;;;;;16.10;14.90;;;10.00;99.90;;;;;;5031168;28;20444;-85
2022/05/01 00:51:25;;;;;;;16.70;15.30;;;10.10;99.90;;;;;;5022981;28;20399;-86
2022/05/01 00:53:51;;;;;;;16.37;15.17;;;10.10;99.90;;;;;;5019838;28;20752;-85
2022/05/01 00:56:18;;;;;;;15.70;14.40;;;10.10;99.90;;;;;;5035565;28;20475;-85
2022/05/01 00:58:45;;;;;;;14.15;13.15;;;9.80;99.90;;;;;;5035334;28;20453;-84
2022/05/01 01:01:14;;;;;;;15.55;14.35;;;10.20;99.90;;;;;;5035537;28;20391;-85
2022/05/01 01:03:40;;;;;;;15.43;14.32;;;9.60;99.90;;;;;;5035382;28;20486;-86
2022/05/01 01:06:06;;;;;;;14.40;13.40;;;9.20;99.90;;;;;;5035415;28;20884;-85
2022/05/01 01:08:32;;;;;;;14.67;13.57;;;9.40;99.90;;;;;;5035653;28;20792;-85
2022/05/01 01:10:58;;;;;;;13.95;13.00;;;9.60;99.90;;;;;;5035202;28;20385;-85
2022/05/01 01:13:30;;;;;;;13.68;12.75;;;9.70;99.90;;;;;;5035311;28;20387;-85
2022/05/01 01:15:57;;;;;;;12.93;12.03;;;9.80;99.90;;;;;;5035224;28;20431;-85
2022/05/01 01:18:23;;;;;;;13.13;12.27;;;9.80;99.90;;;;;;5035294;28;20379;-85
2022/05/01 01:20:51;;;;;;;13.50;12.50;;;9.90;99.90;;;;;;5035169;28;20395;-86
2022/05/01 01:23:17;;;;;;;13.32;12.32;;;9.70;99.90;;;;;;5035193;28;20379;-85
2022/05/01 01:25:43;;;;;;;14.18;13.07;;;9.70;99.90;;;;;;5034025;28;20387;-84
2022/05/01 01:28:09;;;;;;;13.07;12.18;;;9.70;99.90;;;;;;5035006;28;20391;-85
2022/05/01 01:33:24;;;;;;;12.70;11.80;;;9.70;99.90;;;;;;5016824;28;20389;-85
2022/05/01 01:35:51;;;;;;;13.10;12.10;;;10.10;99.90;;;;;;5025343;28;20510;-85
2022/05/01 01:38:17;;;;;;;13.25;12.25;;;9.70;99.90;;;;;;5034839;28;20792;-85
2022/05/01 01:40:51;;;;;;;12.68;11.68;;;9.60;99.90;;;;;;5026445;28;20388;-84
2022/05/01 01:43:21;;;;;;;13.45;12.35;;;9.50;99.90;;;;;;5030439;28;20852;-86
2022/05/01 01:45:47;;;;;;;13.02;12.13;;;9.70;99.90;;;;;;5034615;28;20422;-85
2022/05/01 01:48:16;;;;;;;13.47;12.47;;;9.50;99.90;;;;;;5034671;28;20447;-85
2022/05/01 01:50:43;;;;;;;13.23;12.25;;;9.30;99.90;;;;;;5026125;28;20391;-85
2022/05/01 01:53:11;;;;;;;13.02;12.13;;;9.30;99.90;;;;;;5034883;28;20391;-86
2022/05/01 01:55:38;;;;;;;13.20;12.27;;;9.20;99.90;;;;;;5033491;28;20422;-85
2022/05/01 01:58:04;;;;;;;14.17;13.17;;;9.30;99.90;;;;;;5013219;28;20480;-85
2022/05/01 02:00:30;;;;;;;13.10;12.00;;;9.10;99.90;;;;;;5020673;28;20737;-86
2022/05/01 02:03:00;;;;;;;14.23;13.03;;;9.10;99.90;;;;;;5025514;28;20527;-85
2022/05/01 02:05:27;;;;;;;13.40;12.50;;;9.00;99.90;;;;;;5024644;28;20759;-85
2022/05/01 02:07:53;;;;;;;13.77;12.80;;;9.00;99.90;;;;;;5033196;28;20390;-85
2022/05/01 02:10:20;;;;;;;13.37;12.47;;;9.20;99.90;;;;;;5024331;28;20385;-85
2022/05/01 02:12:46;;;;;;;13.90;12.60;;;9.20;99.90;;;;;;5030807;28;20752;-86
2022/05/01 02:15:12;;;;;;;14.63;13.63;;;9.10;99.90;;;;;;5034075;28;20411;-85
2022/05/01 02:17:39;;;;;;;14.52;13.40;;;9.00;99.90;;;;;;5020240;28;20377;-85
2022/05/01 02:20:05;;;;;;;14.45;13.35;;;8.80;99.90;;;;;;5034255;28;20383;-86
2022/05/01 02:22:31;;;;;;;14.20;13.20;;;8.60;99.90;;;;;;5034184;28;20453;-85
2022/05/01 02:24:57;;;;;;;14.93;13.87;;;8.80;99.90;;;;;;5022329;28;20389;-85
2022/05/01 02:27:25;;;;;;;14.00;13.00;;;8.70;99.90;;;;;;5025062;28;20430;-85
2022/05/01 02:29:51;;;;;;;14.90;13.88;;;8.60;99.90;;;;;;5033909;28;20478;-86
2022/05/01 02:32:17;;;;;;;14.40;13.30;;;8.40;99.90;;;;;;5034302;28;20477;-85
2022/05/01 02:34:42;;;;;;;14.83;13.77;;;8.90;99.90;;;;;;5033793;28;20437;-85
2022/05/01 02:37:08;;;;;;;14.67;13.67;;;8.40;99.90;;;;;;5033960;28;20458;-85
2022/05/01 02:39:34;;;;;;;14.27;13.27;;;8.40;99.90;;;;;;5034146;28;20449;-86
2022/05/01 02:42:00;;;;;;;14.35;13.35;;;8.70;99.90;;;;;;5033552;28;20880;-85
2022/05/01 02:44:26;;;;;;;14.30;13.20;;;8.50;99.90;;;;;;5033507;28;20430;-86
2022/05/01 02:46:51;;;;;;;14.32;13.32;;;8.60;99.90;;;;;;5033433;28;20811;-85
2022/05/01 02:49:17;;;;;;;13.93;12.95;;;8.60;99.90;;;;;;5030192;28;20388;-85
2022/05/01 02:51:43;;;;;;;14.10;13.10;;;8.60;99.90;;;;;;5028691;28;20387;-85
2022/05/01 02:54:08;;;;;;;13.00;12.10;;;8.60;99.90;;;;;;5033659;28;20418;-85
2022/05/01 02:56:35;;;;;;;13.87;12.77;;;8.50;99.90;;;;;;5033631;28;20449;-86
2022/05/01 02:59:00;;;;;;;14.90;13.70;;;8.50;99.90;;;;;;5033027;28;20407;-85
2022/05/01 03:01:29;;;;;;;14.02;12.98;;;8.10;99.90;;;;;;5033202;28;20387;-86
2022/05/01 03:03:54;;;;;;;14.13;13.07;;;7.80;99.90;;;;;;5033077;28;20395;-85
2022/05/01 03:06:20;;;;;;;13.33;12.40;;;7.90;99.90;;;;;;5033344;28;20726;-85
2022/05/01 03:08:46;;;;;;;14.50;13.47;;;8.80;99.90;;;;;;5033094;28;20391;-85
2022/05/01 03:11:11;;;;;;;14.27;13.27;;;8.10;99.90;;;;;;5032997;28;20475;-85
2022/05/01 03:13:37;;;;;;;14.27;13.27;;;8.30;99.90;;;;;;5032967;28;20503;-86
2022/05/01 03:16:03;;;;;;;14.00;12.97;;;8.00;99.90;;;;;;5018408;28;20420;-85
2022/05/01 03:23:57;;;;;;;13.82;12.82;;;8.10;99.90;;;;;;5032900;28;20382;-85
2022/05/01 03:26:22;;;;;;;13.13;12.20;;;8.20;99.90;;;;;;5029377;28;20381;-85
2022/05/01 03:28:48;;;;;;;13.25;12.35;;;8.30;99.90;;;;;;5021588;28;20419;-85
2022/05/01 03:31:15;;;;;;;13.20;12.30;;;8.10;99.90;;;;;;5032549;28;20384;-85
2022/05/01 03:33:42;;;;;;;14.00;13.07;;;8.00;99.90;;;;;;5032639;28;20382;-85
2022/05/01 03:36:09;;;;;;;14.57;13.57;;;8.00;99.90;;;;;;5031670;28;20414;-85
2022/05/01 03:38:40;;;;;;;14.13;13.13;;;7.80;99.90;;;;;;5032545;28;20860;-84
2022/05/01 03:41:08;;;;;;;14.93;13.77;;;7.80;99.90;;;;;;5020826;28;20388;-84
2022/05/01 03:43:34;;;;;;;15.05;13.90;;;7.80;99.90;;;;;;5016456;28;20740;-84
2022/05/01 03:46:01;;;;;;;13.70;12.70;;;7.80;99.90;;;;;;5032531;28;20382;-85
2022/05/01 03:48:27;;;;;;;13.90;12.90;;;7.80;99.90;;;;;;5032452;28;20396;-84
2022/05/01 03:50:54;;;;;;;13.90;12.90;;;8.20;99.90;;;;;;5015677;28;20401;-85
2022/05/01 03:53:21;;;;;;;14.10;13.00;;;7.80;99.90;;;;;;5026826;28;20387;-84
2022/05/01 03:55:46;;;;;;;14.45;13.45;;;7.80;99.90;;;;;;5032506;28;20407;-84
2022/05/01 03:58:13;;;;;;;14.40;13.38;;;7.80;99.90;;;;;;5005209;28;20417;-84
2022/05/01 04:00:39;;;;;;;13.50;12.60;;;7.80;99.90;;;;;;5029486;28;20453;-84
2022/05/01 04:03:04;;;;;;;14.23;13.32;;;7.80;99.90;;;;;;5028544;28;20399;-84
2022/05/01 04:05:33;;;;;;;14.38;13.27;;;8.40;99.90;;;;;;5026618;28;20381;-84
2022/05/01 04:07:59;;;;;;;14.10;13.10;;;7.90;99.90;;;;;;5022777;28;20401;-84
2022/05/01 04:10:25;;;;;;;15.50;14.20;;;7.70;99.90;;;;;;5007953;28;20387;-85
2022/05/01 04:12:50;;;;;;;14.20;13.20;;;7.40;99.90;;;;;;5028972;28;20927;-84
2022/05/01 04:15:16;;;;;;;15.70;14.50;;;7.40;99.90;;;;;;5032207;28;20406;-85
2022/05/01 04:17:42;;;;;;;15.23;14.13;;;7.30;99.90;;;;;;5032332;28;20379;-84
2022/05/01 04:20:12;;;;;;;14.98;13.88;;;7.30;99.90;;;;;;5021164;28;20389;-85
2022/05/01 04:22:47;;;;;;;14.90;13.80;;;7.30;99.90;;;;;;5015089;28;20503;-85
2022/05/01 04:25:20;;;;;;;15.32;14.15;;;7.30;99.90;;;;;;5008293;28;20462;-85
2022/05/01 04:27:48;;;;;;;14.85;13.75;;;7.60;99.90;;;;;;5022514;28;20436;-85
2022/05/01 04:30:15;;;;;;;14.90;13.80;;;7.50;99.90;;;;;;5036397;28;20418;-85
2022/05/01 04:32:56;;;;;;;15.00;13.90;;;7.40;99.90;;;;;;5036293;28;20394;-85
2022/05/01 04:35:22;;;;;;;13.68;12.68;;;7.30;99.90;;;;;;5033741;28;20413;-86
2022/05/01 04:37:48;;;;;;;14.80;13.67;;;7.30;99.90;;;;;;5016050;28;20392;-84
2022/05/01 04:40:14;;;;;;;14.32;13.23;;;7.10;99.90;;;;;;5034361;28;20571;-85
2022/05/01 04:42:41;;;;;;;13.43;12.45;;;7.10;99.90;;;;;;5035753;28;20397;-85
2022/05/01 04:45:08;;;;;;;12.77;11.88;;;7.20;99.90;;;;;;5035617;28;20433;-85
2022/05/01 04:47:34;;;;;;;13.82;12.82;;;7.30;99.90;;;;;;5033475;28;20425;-85
2022/05/01 04:50:00;;;;;;;13.00;11.90;;;7.30;99.90;;;;;;5025402;28;20933;-85
2022/05/01 04:52:25;;;;;;;13.57;12.52;;;7.40;99.90;;;;;;5035725;28;20824;-87
2022/05/01 04:54:51;;;;;;;13.93;12.93;;;7.40;99.90;;;;;;5035650;28;20449;-84
2022/05/01 04:57:17;;;;;;;13.13;12.23;;;7.50;99.90;;;;;;5035569;28;20390;-84
2022/05/01 04:59:43;;;;;;;14.40;13.27;;;7.60;99.90;;;;;;5008958;28;20430;-85
2022/05/01 05:02:09;;;;;;;14.13;13.07;;;8.00;99.90;;;;;;4999725;28;20379;-87
2022/05/01 05:04:34;;;;;;;13.57;12.68;;;7.60;99.90;;;;;;5004719;28;21881;-87
2022/05/01 05:07:00;;;;;;;14.65;13.65;;;7.60;99.90;;;;;;4999217;28;20444;-85
2022/05/01 05:12:10;;;;;;;13.80;12.68;;;7.70;99.90;;;;;;5035565;28;20387;-85
2022/05/01 05:14:37;;;;;;;13.37;12.37;;;7.60;99.90;;;;;;5000989;28;20796;-85
2022/05/01 05:17:06;;;;;;;13.27;12.38;;;7.80;99.90;;;;;;5014357;28;20383;-87
2022/05/01 05:19:33;;;;;;;13.05;11.95;;;7.80;99.90;;;;;;5008815;28;20751;-86
2022/05/01 05:21:59;;;;;;;12.53;11.53;;;8.10;99.90;;;;;;4999241;28;20768;-85
2022/05/01 05:24:24;;;;;;;12.90;11.80;;;7.70;99.90;;;;;;4996352;28;20409;-85
2022/05/01 05:26:50;;;;;;;12.60;11.70;;;7.70;99.90;;;;;;5021337;28;20409;-86
2022/05/01 05:29:15;;;;;;;12.80;11.90;;;7.80;99.90;;;;;;5035100;28;20568;-86
2022/05/01 05:31:41;;;;;;;11.50;10.70;;;7.80;99.90;;;;;;5035054;28;20398;-88
2022/05/01 05:34:07;;;;;;;13.37;12.37;;;7.90;99.90;;;;;;5033633;28;20787;-87
2022/05/01 05:36:32;;;;;;;12.83;11.90;;;7.90;99.90;;;;;;5024317;28;20394;-87
2022/05/01 05:38:58;;;;;;;13.00;12.10;;;8.00;99.90;;;;;;5030538;28;20475;-86
2022/05/01 05:41:23;;;;;;;13.30;12.20;;;7.90;99.90;;;;;;5015103;28;20467;-88
2022/05/01 05:43:49;;;;;;;12.57;11.67;;;8.00;99.90;;;;;;5035035;28;20394;-85
2022/05/01 05:46:15;;;;;;;12.13;11.30;;;8.10;99.90;;;;;;5034795;28;20383;-86
2022/05/01 05:48:40;;;;;;;12.13;11.23;;;8.20;99.90;;;;;;5034776;28;20391;-85
2022/05/01 05:51:06;;;;;;;12.13;11.33;;;8.10;99.90;;;;;;5034685;28;20733;-86
2022/05/01 05:53:32;;;;;;;13.37;12.47;;;8.20;99.90;;;;;;5034442;28;20398;-87
2022/05/01 05:55:58;;;;;;;12.43;11.52;;;8.20;99.90;;;;;;5033216;28;20407;-88
2022/05/01 05:58:24;;;;;;;12.27;11.48;;;8.30;99.90;;;;;;5034349;28;20509;-86
2022/05/01 06:00:49;;;;;;;11.40;10.60;;;8.40;99.90;;;;;;5018063;28;20389;-87
2022/05/01 06:03:15;;;;;;;12.30;11.40;;;8.30;99.90;;;;;;5025444;28;20482;-87
2022/05/01 06:05:40;;;;;;;13.18;12.18;;;8.30;99.90;;;;;;5027256;28;20394;-87
2022/05/01 06:08:06;;;;;;;12.88;11.95;;;8.50;99.90;;;;;;5034651;28;20461;-88
2022/05/01 06:10:32;;;;;;;12.55;11.68;;;8.20;99.90;;;;;;5033516;28;20484;-88
2022/05/01 06:12:57;;;;;;;13.05;12.15;;;8.30;99.90;;;;;;5034420;28;20445;-87
2022/05/01 06:15:24;;;;;;;13.77;12.77;;;8.40;99.90;;;;;;5034320;28;20760;-87
2022/05/01 06:17:51;;;;;;;14.35;13.32;;;8.40;99.90;;;;;;5034063;28;20827;-88
2022/05/01 06:20:17;;;;;;;13.57;12.48;;;8.60;99.90;;;;;;5034189;28;20410;-87
2022/05/01 06:22:43;;;;;;;14.07;13.07;;;8.50;99.90;;;;;;5035283;28;20384;-87
2022/05/01 06:25:08;;;;;;;13.70;12.70;;;8.50;99.90;;;;;;5020204;28;20400;-88
2022/05/01 06:27:35;;;;;;;13.50;12.50;;;8.40;99.90;;;;;;5026753;28;20395;-86
2022/05/01 06:30:01;;;;;;;14.30;13.20;;;8.50;99.90;;;;;;5033838;28;20422;-87
2022/05/01 06:32:27;;;;;;;14.80;13.80;;;8.10;99.90;;;;;;5033820;28;20423;-87
2022/05/01 06:34:53;;;;;;;14.27;13.27;;;8.20;99.90;;;;;;5032278;28;20415;-87
2022/05/01 06:37:18;;;;;;;14.98;13.77;;;8.40;99.90;;;;;;5023172;28;20901;-87
2022/05/01 06:39:44;;;;;;;14.50;13.40;;;8.40;99.90;;;;;;5005766;28;20456;-87
2022/05/01 06:42:10;;;;;;;14.40;13.27;;;8.40;99.90;;;;;;5020468;28;20521;-86
2022/05/01 06:44:36;;;;;;;15.53;14.33;;;8.50;99.90;;;;;;5033599;28;20474;-88
2022/05/01 06:47:02;;;;;;;16.27;14.98;;;8.40;99.90;;;;;;5017856;28;20404;-87
2022/05/01 06:49:27;;;;;;;16.38;15.07;;;8.20;99.90;;;;;;5014788;28;20743;-87
2022/05/01 06:51:53;;;;;;;16.63;15.23;;;8.00;99.90;;;;;;5013287;28;20479;-87
2022/05/01 06:54:19;;;;;;;16.85;15.55;;;8.60;99.90;;;;;;5021525;28;20425;-86
2022/05/01 06:56:44;;;;;;;16.30;15.00;;;8.60;99.90;;;;;;5016880;28;20880;-79
2022/05/01 06:59:10;;;;;;;17.15;15.75;;;8.90;99.90;;;;;;5033191;28;20413;-80
2022/05/01 07:01:36;;;;;;;17.48;16.10;;;8.90;99.90;;;;;;5014352;28;20393;-80
2022/05/01 07:04:02;;;;;;;16.35;15.15;;;8.70;99.90;;;;;;5031392;28;20389;-80
2022/05/01 07:06:30;;;;;;;16.15;14.95;;;9.00;99.90;;;;;;5020847;28;20438;-79
2022/05/01 07:08:55;;;;;;;15.00;13.90;;;9.10;99.90;;;;;;5025831;28;20410;-78
2022/05/01 07:11:21;;;;;;;16.23;15.03;;;9.00;99.90;;;;;;5033187;28;20387;-78
2022/05/01 07:13:46;;;;;;;16.43;15.20;;;8.90;99.90;;;;;;5028855;28;20958;-79
2022/05/01 07:16:12;;;;;;;16.67;15.33;;;9.20;99.90;;;;;;5030584;28;20506;-78
2022/05/01 07:18:38;;;;;;;20.17;18.43;;;9.50;99.90;;;;;;5030829;28;20441;-78
2022/05/01 07:21:03;;;;;;;18.93;17.37;;;9.00;99.90;;;;;;5013401;28;20389;-80
2022/05/01 07:23:30;;;;;;;19.23;17.63;;;9.30;99.90;;;;;;5020715;28;20390;-79
2022/05/01 07:25:56;;;;;;;17.85;16.45;;;9.20;99.90;;;;;;5032865;28;20437;-80
2022/05/01 07:28:22;;;;;;;17.92;16.48;;;9.30;99.90;;;;;;5020350;28;20495;-81
2022/05/01 07:30:48;;;;;;;18.85;17.15;;;9.30;99.90;;;;;;5023482;28;20391;-79
2022/05/01 07:33:13;;;;;;;18.27;16.77;;;9.30;99.90;;;;;;5032559;28;20592;-79
2022/05/01 07:35:39;;;;;;;19.13;17.42;;;9.50;99.90;;;;;;5026465;28;20423;-79
2022/05/01 07:38:05;;;;;;;18.95;17.30;;;9.40;99.90;;;;;;5005845;28;20415;-79
2022/05/01 07:40:30;;;;;;;20.15;18.40;;;9.50;99.90;;;;;;5019979;28;20465;-79
2022/05/01 07:42:56;;;;;;;19.33;17.63;;;9.40;99.90;;;;;;5032527;28;20391;-79
2022/05/01 07:45:22;;;;;;;18.63;16.90;;;9.40;99.90;;;;;;5016586;28;20387;-79
2022/05/01 07:47:47;;;;;;;18.53;17.03;;;9.70;99.90;;;;;;5013978;28;20455;-80
2022/05/01 07:50:14;;;;;;;19.05;17.45;;;9.90;99.90;;;;;;5020770;28;20391;-80
2022/05/01 07:52:40;;;;;;;18.75;17.15;;;10.00;99.90;;;;;;5032537;28;20387;-81
2022/05/01 07:55:06;;;;;;;17.77;16.37;;;10.00;99.90;;;;;;5032147;28;20465;-79
2022/05/01 07:57:32;;;;;;;18.67;17.08;;;10.10;99.90;;;;;;5029436;28;20847;-80
2022/05/01 07:59:58;;;;;;;18.77;17.17;;;10.30;99.90;;;;;;5025227;28;20470;-80
2022/05/01 08:02:23;;;;;;;17.77;16.35;;;10.30;99.90;;;;;;5026403;28;20394;-80
2022/05/01 08:04:49;;;;;;;17.90;16.40;;;10.50;99.90;;;;;;5026704;28;20404;-84
2022/05/01 08:07:17;;;;;;;18.17;16.67;;;10.50;99.90;;;;;;5024609;28;20399;-81
2022/05/01 08:09:43;;;;;;;17.23;15.80;;;10.20;99.90;;;;;;5020068;28;20399;-82
2022/05/01 08:12:09;;;;;;;16.95;15.45;;;10.30;99.90;;;;;;5024424;28;20504;-81
2022/05/01 08:14:35;;;;;;;14.95;13.65;;;10.60;99.90;;;;;;5016507;28;20772;-83
2022/05/01 08:17:00;;;;;;;14.68;13.38;;;10.60;99.90;;;;;;5018888;28;20722;-81
2022/05/01 08:22:10;;;;;;;14.23;12.95;;;10.80;99.90;;;;;;5026729;28;20430;-86
2022/05/01 08:24:36;;;;;;;14.20;13.00;;;11.00;99.90;;;;;;5027926;28;20399;-80
2022/05/01 08:27:05;;;;;;;16.03;14.63;;;10.90;99.90;;;;;;5027974;28;20428;-80
2022/05/01 08:29:37;;;;;;;16.80;15.50;;;10.90;99.90;;;;;;5022232;28;20757;-81
2022/05/01 08:32:03;;;;;;;15.43;14.23;;;10.90;99.90;;;;;;5022077;28;20886;-84
2022/05/01 08:34:29;;;;;;;15.90;14.70;;;10.90;99.90;;;;;;5026714;28;20406;-85
2022/05/01 08:36:55;;;;;;;16.25;14.93;;;11.00;99.90;;;;;;5031797;28;20440;-84
2022/05/01 08:39:21;;;;;;;16.20;14.88;;;11.20;99.90;;;;;;5031517;28;20722;-84
2022/05/01 08:41:46;;;;;;;15.20;13.90;;;11.20;99.90;;;;;;5023984;28;20385;-84
2022/05/01 08:44:14;;;;;;;14.60;13.30;;;11.10;99.90;;;;;;5010668;28;20449;-84
2022/05/01 08:46:57;;;;;;;15.23;13.82;;;11.10;99.90;;;;;;5031148;28;20749;-84
2022/05/01 08:49:24;;;;;;;14.70;13.60;;;11.40;99.90;;;;;;5027822;28;20468;-84
2022/05/01 08:51:52;;;;;;;14.77;13.50;;;11.50;99.90;;;;;;5027906;28;20397;-83
2022/05/01 08:54:17;;;;;;;13.82;12.70;;;11.50;99.90;;;;;;5031707;28;20883;-83
2022/05/01 08:56:45;;;;;;;13.30;12.30;;;11.70;99.90;;;;;;5030299;28;20438;-83
2022/05/01 08:59:14;;;;;;;12.93;12.00;;;12.00;99.90;;;;;;5030719;28;20403;-81
2022/05/01 09:01:42;;;;;;;11.82;10.82;;;11.90;99.90;;;;;;5023944;28;20391;-82
2022/05/01 09:04:09;;;;;;;12.30;11.37;;;11.80;99.90;;;;;;5030743;28;20419;-82
2022/05/01 09:06:36;;;;;;;10.75;9.95;;;11.90;99.90;;;;;;5029234;28;20401;-82
2022/05/01 09:09:09;;;;;;;12.02;11.02;;;12.00;99.90;;;;;;5006801;28;20482;-82
2022/05/01 09:14:23;;;;;;;11.57;10.68;;;12.20;99.90;;;;;;5027477;28;20418;-81
2022/05/01 09:17:16;;;;;;;11.70;10.88;;;12.40;99.90;;;;;;5033388;28;20456;-82
2022/05/01 09:19:49;;;;;;;11.13;10.13;;;12.50;99.90;;;;;;5033822;28;20418;-82
2022/05/01 09:22:16;;;;;;;11.88;10.95;;;12.30;99.90;;;;;;5033869;28;20379;-83
2022/05/01 09:24:42;;;;;;;11.00;10.20;;;12.20;99.90;;;;;;5008091;28;20404;-81
2022/05/01 09:27:32;;;;;;;11.50;10.60;;;12.40;99.90;;;;;;5013322;28;20405;-83
2022/05/01 09:30:09;;;;;;;10.57;9.77;;;12.70;99.90;;;;;;5015658;28;20397;-82
2022/05/01 09:32:39;;;;;;;10.20;9.38;;;12.90;99.90;;;;;;5030123;28;20483;-81
2022/05/01 09:35:25;;;;;;;10.70;9.80;;;13.00;99.90;;;;;;5013992;28;20838;-82
2022/05/01 09:38:17;;;;;;;10.40;9.60;;;13.10;99.90;;;;;;5014457;28;20395;-82
2022/05/01 09:40:45;;;;;;;9.97;9.27;;;13.10;99.90;;;;;;5014672;28;20487;-82
2022/05/01 09:43:42;;;;;;;10.13;9.38;;;13.10;99.90;;;;;;5015221;28;20385;-83
2022/05/01 09:46:15;;;;;;;10.13;9.43;;;13.10;99.90;;;;;;5018972;28;20397;-84
2022/05/01 09:48:43;;;;;;;9.40;8.60;;;13.40;99.90;;;;;;5034329;28;20391;-87
2022/05/01 09:51:18;;;;;;;9.63;8.95;;;13.70;99.90;;;;;;5022478;28;20396;-82
2022/05/01 09:53:45;;;;;;;8.85;8.15;;;13.70;99.90;;;;;;5032084;28;20466;-83
2022/05/01 09:56:11;;;;;;;8.25;7.63;;;13.90;99.90;;;;;;5030215;28;20962;-83
2022/05/01 09:58:40;;;;;;;8.23;7.60;;;14.00;99.90;;;;;;5018309;28;20406;-82
2022/05/01 10:01:13;;;;;;;8.40;7.80;;;14.10;99.90;;;;;;4998912;28;20385;-82
2022/05/01 10:03:41;;;;;;;8.57;7.88;;;14.20;99.90;;;;;;5000538;28;21061;-82
2022/05/01 10:06:10;;;;;;;8.27;7.60;;;14.20;99.90;;;;;;5002444;28;20429;-80
2022/05/01 10:08:38;;;;;;;8.93;8.17;;;14.30;99.90;;;;;;5005103;28;20509;-80
2022/05/01 10:11:05;;;;;;;18.73;16.27;;;14.70;99.90;;;;;;5010241;28;20964;-82
2022/05/01 10:13:31;;;;;;;9.60;8.63;;;14.90;99.90;;;;;;5002817;28;20434;-82
2022/05/01 10:15:58;;;;;;;7.30;6.80;;;15.10;99.90;;;;;;4994286;28;20449;-82
2022/05/01 10:18:25;;;;;;;7.20;6.57;;;15.20;99.90;;;;;;4997922;28;20856;-90
2022/05/01 10:20:51;;;;;;;6.90;6.40;;;15.30;99.90;;;;;;5026294;28;20916;-88
2022/05/01 10:23:17;;;;;;;6.67;6.17;;;15.40;99.90;;;;;;5009532;28;20402;-85
2022/05/01 10:25:57;;;;;;;7.00;6.50;;;15.60;99.90;;;;;;5009977;28;20412;-87
2022/05/01 10:28:33;;;;;;;6.32;5.93;;;15.80;99.90;;;;;;5018638;28;20398;-86
2022/05/01 10:34:28;;;;;;;6.20;5.70;;;16.20;99.90;;;;;;4998604;28;20401;-85
2022/05/01 10:37:08;;;;;;;6.88;6.38;;;15.80;99.90;;;;;;5031885;28;20494;-84
2022/05/01 10:39:38;;;;;;;7.32;6.82;;;16.00;99.90;;;;;;5032509;28;20386;-85
2022/05/01 10:42:04;;;;;;;7.23;6.70;;;16.00;99.90;;;;;;5033123;28;20438;-83
2022/05/01 10:44:39;;;;;;;8.02;7.43;;;16.00;99.90;;;;;;5024395;28;20408;-83
2022/05/01 10:47:06;;;;;;;14.95;13.52;;;16.20;99.90;;;;;;5011711;28;20411;-83
2022/05/01 10:49:39;;;;;;;16.13;14.55;;;16.20;99.90;;;;;;4995800;28;20449;-84
2022/05/01 10:52:19;;;;;;;40.03;33.35;;;16.20;99.90;;;;;;4996558;28;20421;-83
2022/05/01 10:54:54;;;;;;;21.02;19.17;;;16.30;99.90;;;;;;5016901;28;20413;-82
2022/05/01 10:57:20;;;;;;;9.35;8.70;;;16.30;99.90;;;;;;5032946;28;20780;-82
2022/05/01 10:59:48;;;;;;;9.40;8.70;;;16.40;99.90;;;;;;5018844;28;20398;-81
2022/05/01 11:02:29;;;;;;;8.38;7.70;;;16.40;99.90;;;;;;5028449;28;20375;-81
2022/05/01 11:04:57;;;;;;;8.35;7.75;;;16.50;99.90;;;;;;5008772;28;20386;-81
2022/05/01 11:07:25;;;;;;;8.68;8.00;;;16.40;99.90;;;;;;5032986;28;20441;-82
2022/05/01 11:09:51;;;;;;;8.45;7.82;;;16.30;99.90;;;;;;5033081;28;20796;-81
2022/05/01 11:12:20;;;;;;;8.00;7.30;;;16.30;99.90;;;;;;5032938;28;20389;-81
2022/05/01 11:15:00;;;;;;;8.63;8.02;;;16.50;99.90;;;;;;5022164;28;20888;-84
2022/05/01 11:17:39;;;;;;;8.27;7.68;;;16.30;99.90;;;;;;5021622;28;20396;-85
2022/05/01 11:20:24;;;;;;;9.23;8.52;;;16.50;99.90;;;;;;4997511;28;20736;-85
2022/05/01 11:22:51;;;;;;;8.23;7.57;;;16.50;99.90;;;;;;5003419;28;20415;-84
2022/05/01 11:25:39;;;;;;;8.63;7.93;;;16.50;99.90;;;;;;5003037;28;20402;-86
2022/05/01 11:28:05;;;;;;;8.20;7.60;;;15.80;99.90;;;;;;4997887;28;20767;-85
2022/05/01 11:30:31;;;;;;;12.18;10.90;;;15.70;99.90;;;;;;5004785;28;20409;-85
2022/05/01 11:33:14;;;;;;;8.70;8.02;;;15.50;99.90;;;;;;4997733;28;20399;-83
2022/05/01 11:35:54;;;;;;;8.10;7.50;;;15.50;99.90;;;;;;5014462;28;20441;-83
2022/05/01 11:38:29;;;;;;;7.50;7.00;;;15.80;99.90;;;;;;5007167;28;20435;-79
2022/05/01 11:40:57;;;;;;;7.50;7.00;;;16.00;99.90;;;;;;4997413;28;20414;-83
2022/05/01 11:43:24;;;;;;;6.93;6.43;;;16.00;99.90;;;;;;4999020;28;20453;-84
2022/05/01 11:45:50;;;;;;;6.85;6.35;;;16.00;99.90;;;;;;5002968;28;20485;-84
2022/05/01 11:48:18;;;;;;;9.13;8.43;;;16.20;99.90;;;;;;5003570;28;20430;-83
2022/05/01 11:50:49;;;;;;;7.70;7.10;;;16.30;99.90;;;;;;5001876;28;20478;-86
2022/05/01 11:53:26;;;;;;;7.05;6.55;;;16.20;99.90;;;;;;4998446;28;20414;-84
2022/05/01 12:04:39;;;;;;;6.22;5.72;;;16.30;99.90;;;;;;5007106;28;20834;-87
2022/05/01 12:07:14;;;;;;;7.63;7.03;;;16.50;99.90;;;;;;5000672;28;20397;-86
2022/05/01 12:09:41;;;;;;;6.32;5.82;;;16.80;99.90;;;;;;5017140;28;20441;-85
2022/05/01 12:12:09;;;;;;;5.82;5.43;;;16.90;99.90;;;;;;5019810;28;20460;-86
2022/05/01 12:14:36;;;;;;;6.13;5.63;;;16.60;99.90;;;;;;5016729;28;20404;-84
2022/05/01 12:17:06;;;;;;;6.00;5.50;;;16.60;99.90;;;;;;5023788;28;20398;-84
2022/05/01 12:19:39;;;;;;;5.90;5.40;;;16.60;99.90;;;;;;5031617;28;20864;-85
2022/05/01 12:22:06;;;;;;;6.37;5.73;;;16.60;99.90;;;;;;5021414;28;20755;-85
2022/05/01 12:24:33;;;;;;;5.75;5.28;;;16.70;99.90;;;;;;5014581;28;20914;-89
2022/05/01 12:26:59;;;;;;;6.40;5.90;;;16.70;99.90;;;;;;5021517;28;20436;-88
2022/05/01 12:29:24;;;;;;;5.40;4.95;;;16.70;99.90;;;;;;5011856;28;20398;-88
2022/05/01 12:32:11;;;;;;;5.00;4.60;;;16.80;99.90;;;;;;5015771;28;20399;-88
2022/05/01 12:34:40;;;;;;;5.05;4.65;;;17.00;99.90;;;;;;5018256;28;20405;-89
2022/05/01 12:37:12;;;;;;;5.57;5.10;;;17.00;99.90;;;;;;5015623;28;20397;-88
2022/05/01 12:39:37;;;;;;;4.95;4.63;;;16.80;99.90;;;;;;5024443;28;20419;-88
2022/05/01 12:45:17;;;;;;;5.50;5.10;;;16.90;99.90;;;;;;5015149;28;20514;-88
2022/05/01 12:47:48;;;;;;;5.55;5.15;;;16.80;99.90;;;;;;5022420;28;20418;-88
2022/05/01 12:50:20;;;;;;;6.22;5.63;;;16.40;99.90;;;;;;5022525;28;20395;-88
2022/05/01 12:52:48;;;;;;;5.10;4.70;;;16.50;99.90;;;;;;5025189;28;20486;-88
2022/05/01 12:55:20;;;;;;;4.80;4.50;;;16.60;99.90;;;;;;5020206;28;20415;-89
2022/05/01 12:57:48;;;;;;;4.53;4.13;;;16.80;99.90;;;;;;5034589;28;20395;-88
2022/05/01 13:00:29;;;;;;;4.40;4.00;;;17.20;99.90;;;;;;5029061;28;20395;-89
2022/05/01 13:03:17;;;;;;;7.78;7.05;;;17.40;99.90;;;;;;5026413;28;20394;-88
2022/05/01 13:05:59;;;;;;;7.40;6.90;;;17.50;99.90;;;;;;5026934;28;20951;-89
2022/05/01 13:08:24;;;;;;;5.07;4.57;;;17.60;99.90;;;;;;5006041;28;20404;-89
2022/05/01 13:11:21;;;;;;;5.70;5.30;;;17.50;99.90;;;;;;5029332;28;20402;-88
2022/05/01 13:14:01;;;;;;;4.63;4.32;;;17.30;99.90;;;;;;5023868;28;20404;-89
2022/05/01 13:16:30;;;;;;;4.43;4.13;;;17.40;99.90;;;;;;5018657;28;20419;-88
2022/05/01 13:19:16;;;;;;;5.78;5.38;;;17.10;99.90;;;;;;5020938;28;20410;-86
2022/05/01 13:21:45;;;;;;;5.20;4.80;;;17.00;99.90;;;;;;5011249;28;20472;-87